Time;durP1;ratioP1;P1;durP2;ratioP2;P2;SDS_P1;SDS_P2;PMS_P1;PMS_P2;Temp;Humidity;BMP_temperature;BMP_pressure;BME280_temperature;BME280_humidity;BME280_pressure;Samples;Min_cycle;Max_cycle;Signal;HPM_P1;HPM_P2
2022/09/18 00:01:35;;;;;;;2.58;0.90;;;19.80;49.50;;;;;;5060168;28;20368;-51
2022/09/18 00:04:06;;;;;;;2.80;0.90;;;19.80;49.30;;;;;;5066510;28;20036;-51
2022/09/18 00:06:38;;;;;;;2.90;0.95;;;19.80;49.00;;;;;;5069599;28;20074;-51
2022/09/18 00:09:10;;;;;;;3.70;1.00;;;19.80;48.60;;;;;;5064278;28;20029;-51
2022/09/18 00:11:41;;;;;;;3.10;1.00;;;19.70;48.40;;;;;;5050084;28;20526;-51
2022/09/18 00:14:13;;;;;;;3.42;1.00;;;19.70;48.50;;;;;;5049346;28;20399;-52
2022/09/18 00:16:42;;;;;;;3.63;0.98;;;19.70;48.70;;;;;;5048620;28;20029;-53
2022/09/18 00:19:12;;;;;;;2.70;0.88;;;19.70;48.90;;;;;;5049772;28;20483;-54
2022/09/18 00:21:46;;;;;;;2.75;0.90;;;19.70;48.50;;;;;;5049901;28;20029;-52
2022/09/18 00:24:16;;;;;;;3.10;0.93;;;19.70;48.50;;;;;;5048593;28;20036;-51
2022/09/18 00:26:45;;;;;;;3.47;1.17;;;19.70;48.50;;;;;;5049396;28;20036;-52
2022/09/18 00:29:15;;;;;;;4.22;1.23;;;19.70;49.40;;;;;;5053529;28;20020;-52
2022/09/18 00:31:43;;;;;;;1.95;0.80;;;19.80;48.80;;;;;;5051429;28;20351;-52
2022/09/18 00:34:14;;;;;;;2.63;1.00;;;19.80;48.80;;;;;;5069558;28;20129;-54
2022/09/18 00:36:43;;;;;;;3.33;0.90;;;19.80;48.90;;;;;;5063343;28;20025;-53
2022/09/18 00:39:13;;;;;;;2.47;0.90;;;19.80;48.70;;;;;;5067218;28;20052;-54
2022/09/18 00:41:43;;;;;;;5.63;0.98;;;19.80;48.90;;;;;;5069867;28;20066;-52
2022/09/18 00:44:35;;;;;;;5.03;1.00;;;19.80;48.80;;;;;;5067978;28;20135;-53
2022/09/18 00:47:10;;;;;;;2.72;0.90;;;19.90;48.80;;;;;;5048190;28;20516;-54
2022/09/18 00:50:02;;;;;;;4.28;1.00;;;19.80;48.80;;;;;;5059589;28;20032;-52
2022/09/18 00:52:57;;;;;;;3.03;1.10;;;19.80;48.90;;;;;;5061627;28;20123;-53
2022/09/18 00:55:34;;;;;;;6.10;1.10;;;19.80;49.00;;;;;;5042651;28;20340;-51
2022/09/18 00:58:03;;;;;;;3.13;1.00;;;19.90;49.20;;;;;;5048082;28;20101;-51
2022/09/18 01:00:32;;;;;;;4.78;1.00;;;19.90;49.20;;;;;;5051457;28;20025;-53
2022/09/18 01:03:01;;;;;;;3.33;0.82;;;19.90;49.00;;;;;;5053371;28;20037;-52
2022/09/18 01:05:36;;;;;;;3.00;0.90;;;19.90;49.10;;;;;;5053362;28;20021;-52
2022/09/18 01:08:26;;;;;;;5.60;1.10;;;19.90;49.10;;;;;;5052211;28;20048;-51
2022/09/18 01:11:22;;;;;;;3.50;1.10;;;20.00;49.10;;;;;;5051986;28;20025;-52
2022/09/18 01:14:03;;;;;;;4.05;1.00;;;19.90;49.00;;;;;;5051198;28;20116;-52
2022/09/18 01:16:45;;;;;;;5.32;1.10;;;19.90;49.20;;;;;;5052092;28;20869;-52
2022/09/18 01:19:58;;;;;;;3.25;1.00;;;19.90;49.30;;;;;;5052843;28;20040;-51
2022/09/18 01:22:46;;;;;;;4.72;1.00;;;20.00;49.10;;;;;;5051458;28;20133;-52
2022/09/18 01:25:27;;;;;;;2.20;0.80;;;20.00;49.40;;;;;;5050770;28;20075;-52
2022/09/18 01:27:58;;;;;;;3.05;0.98;;;19.90;49.40;;;;;;5051448;28;20033;-51
2022/09/18 01:30:29;;;;;;;3.70;1.02;;;20.00;48.80;;;;;;5050847;28;20029;-52
2022/09/18 01:33:05;;;;;;;4.95;1.20;;;20.00;48.80;;;;;;5051156;28;20367;-52
2022/09/18 01:35:43;;;;;;;4.75;0.82;;;20.00;48.70;;;;;;5052065;28;20348;-52
2022/09/18 01:38:20;;;;;;;4.80;1.00;;;20.10;48.80;;;;;;5072485;28;20025;-50
2022/09/18 01:41:00;;;;;;;2.22;0.80;;;20.10;48.50;;;;;;5072263;28;20071;-51
2022/09/18 01:43:31;;;;;;;3.58;1.10;;;20.10;48.50;;;;;;5070474;28;20491;-52
2022/09/18 01:46:06;;;;;;;3.28;0.82;;;20.10;48.40;;;;;;5066017;28;20029;-52
2022/09/18 01:48:57;;;;;;;2.72;1.00;;;20.10;48.20;;;;;;5051029;28;20033;-51
2022/09/18 01:51:37;;;;;;;2.03;0.80;;;20.10;48.30;;;;;;5050959;28;20380;-53
2022/09/18 01:54:14;;;;;;;4.68;1.15;;;20.10;48.70;;;;;;5050205;28;20456;-51
2022/09/18 01:57:06;;;;;;;3.45;0.90;;;20.20;48.80;;;;;;5050932;28;20033;-52
2022/09/18 01:59:49;;;;;;;4.20;1.08;;;20.20;48.80;;;;;;5023372;28;20033;-51
2022/09/18 02:02:51;;;;;;;2.88;0.98;;;20.20;48.40;;;;;;5050564;28;20095;-51
2022/09/18 02:05:36;;;;;;;4.00;1.10;;;20.20;48.40;;;;;;5049561;28;20488;-52
2022/09/18 02:08:20;;;;;;;1.88;0.93;;;20.20;48.10;;;;;;5050595;28;20029;-51
2022/09/18 02:10:57;;;;;;;2.95;0.80;;;20.30;48.10;;;;;;5049898;28;20029;-51
2022/09/18 02:13:33;;;;;;;3.55;0.95;;;20.30;48.10;;;;;;5056384;28;20056;-52
2022/09/18 02:16:09;;;;;;;2.42;0.88;;;20.30;47.80;;;;;;5050604;28;20048;-50
2022/09/18 02:18:42;;;;;;;4.72;0.98;;;20.30;47.60;;;;;;5034489;28;20116;-50
2022/09/18 02:21:16;;;;;;;3.40;1.00;;;20.40;47.70;;;;;;5051868;28;20029;-56
2022/09/18 02:23:45;;;;;;;2.35;0.80;;;20.40;47.70;;;;;;5033188;28;20037;-50
2022/09/18 02:26:14;;;;;;;3.60;0.80;;;20.40;47.60;;;;;;5055960;28;20127;-52
2022/09/18 02:28:45;;;;;;;3.65;1.05;;;20.40;47.80;;;;;;5069585;28;20025;-53
2022/09/18 02:31:15;;;;;;;3.67;1.00;;;20.40;48.00;;;;;;5070175;28;20040;-51
2022/09/18 02:33:43;;;;;;;2.55;0.88;;;20.40;48.00;;;;;;5069855;28;20029;-50
2022/09/18 02:36:20;;;;;;;2.45;1.00;;;20.40;48.00;;;;;;5066227;28;20052;-56
2022/09/18 02:39:12;;;;;;;4.38;1.10;;;20.40;48.20;;;;;;5049129;28;20122;-53
2022/09/18 02:41:44;;;;;;;3.78;0.90;;;20.40;48.10;;;;;;5050510;28;20042;-50
2022/09/18 02:44:38;;;;;;;3.30;1.00;;;20.40;48.40;;;;;;5050680;28;20044;-52
2022/09/18 02:47:18;;;;;;;2.67;0.95;;;20.50;48.40;;;;;;5048678;28;20065;-50
2022/09/18 02:50:28;;;;;;;2.40;1.00;;;20.50;48.40;;;;;;5032854;28;20032;-49
2022/09/18 02:53:15;;;;;;;5.65;1.15;;;20.50;48.50;;;;;;5062726;28;20448;-52
2022/09/18 02:55:56;;;;;;;3.63;1.15;;;20.50;48.80;;;;;;5058411;28;20104;-52
2022/09/18 02:58:46;;;;;;;2.70;1.00;;;20.50;48.60;;;;;;5048686;28;20437;-53
2022/09/18 03:01:16;;;;;;;3.45;1.10;;;20.60;48.40;;;;;;5049677;28;20116;-54
2022/09/18 03:03:45;;;;;;;5.32;0.90;;;20.60;48.20;;;;;;5049167;28;20128;-54
2022/09/18 03:06:14;;;;;;;3.38;1.00;;;20.60;47.40;;;;;;5058453;28;20050;-53
2022/09/18 03:08:43;;;;;;;7.15;1.17;;;20.70;47.70;;;;;;5061495;28;20060;-52
2022/09/18 03:11:10;;;;;;;4.38;1.00;;;20.70;47.60;;;;;;5049846;28;20028;-52
2022/09/18 03:13:39;;;;;;;2.67;0.95;;;20.80;47.40;;;;;;5056842;28;20066;-53
2022/09/18 03:16:07;;;;;;;3.92;1.30;;;20.80;47.00;;;;;;5068880;28;20474;-52
2022/09/18 03:18:36;;;;;;;2.90;1.10;;;20.90;46.90;;;;;;5068753;28;20360;-52
2022/09/18 03:21:04;;;;;;;4.85;1.02;;;20.90;46.00;;;;;;5069099;28;20052;-51
2022/09/18 03:23:33;;;;;;;3.28;1.00;;;20.90;45.10;;;;;;5062568;28;20041;-50
2022/09/18 03:26:14;;;;;;;4.72;1.10;;;21.00;45.00;;;;;;5066879;28;20017;-51
2022/09/18 03:28:43;;;;;;;5.43;1.25;;;21.00;45.20;;;;;;5048646;28;20036;-51
2022/09/18 03:31:13;;;;;;;4.35;1.05;;;21.00;45.00;;;;;;5058093;28;20020;-51
2022/09/18 03:33:41;;;;;;;4.78;1.10;;;21.10;44.90;;;;;;5068840;28;20443;-51
2022/09/18 03:36:09;;;;;;;2.33;0.80;;;21.10;44.50;;;;;;5065804;28;20024;-51
2022/09/18 03:38:39;;;;;;;2.42;0.82;;;21.10;44.30;;;;;;5055476;28;20044;-52
2022/09/18 03:41:08;;;;;;;27.42;2.17;;;21.10;44.10;;;;;;5049152;28;20033;-51
2022/09/18 03:43:40;;;;;;;4.47;1.70;;;21.10;44.10;;;;;;5063606;28;20365;-51
2022/09/18 03:46:11;;;;;;;25.20;14.90;;;21.20;44.20;;;;;;5063638;28;20341;-54
2022/09/18 03:48:40;;;;;;;24.27;14.07;;;21.10;44.30;;;;;;5061310;28;20090;-52
2022/09/18 03:51:08;;;;;;;24.77;14.63;;;21.20;44.30;;;;;;5053774;28;20555;-53
2022/09/18 03:53:36;;;;;;;17.42;9.00;;;21.20;44.00;;;;;;5064339;28;20471;-52
2022/09/18 03:56:22;;;;;;;7.93;2.85;;;21.20;43.70;;;;;;5070308;28;20078;-52
2022/09/18 03:59:23;;;;;;;5.88;2.30;;;21.20;43.60;;;;;;5046481;28;20499;-53
2022/09/18 04:02:00;;;;;;;5.63;1.45;;;21.20;43.50;;;;;;5068738;28;20317;-52
2022/09/18 04:04:29;;;;;;;2.75;1.10;;;21.30;43.50;;;;;;5069474;28;20074;-52
2022/09/18 04:07:12;;;;;;;2.80;0.85;;;21.30;43.30;;;;;;5063142;28;20352;-53
2022/09/18 04:09:59;;;;;;;3.83;1.20;;;21.30;43.00;;;;;;5054109;28;20112;-52
2022/09/18 04:12:28;;;;;;;2.78;1.10;;;21.30;43.30;;;;;;5067737;28;20129;-53
2022/09/18 04:15:09;;;;;;;3.17;1.10;;;21.40;43.50;;;;;;5055661;28;20036;-52
2022/09/18 04:17:38;;;;;;;4.38;1.10;;;21.40;43.80;;;;;;5064904;28;20116;-52
2022/09/18 04:20:07;;;;;;;4.35;1.35;;;21.40;43.30;;;;;;5048061;28;20025;-51
2022/09/18 04:22:36;;;;;;;4.72;1.02;;;21.50;43.40;;;;;;5066554;28;20527;-52
2022/09/18 04:25:05;;;;;;;4.40;1.10;;;21.50;43.50;;;;;;5052581;28;20065;-51
2022/09/18 04:27:35;;;;;;;2.95;1.00;;;21.50;43.10;;;;;;5050835;28;20456;-52
2022/09/18 04:30:03;;;;;;;3.45;1.08;;;21.60;43.30;;;;;;5066679;28;20082;-52
2022/09/18 04:32:34;;;;;;;4.10;0.90;;;21.60;43.40;;;;;;5048676;28;20115;-53
2022/09/18 04:35:04;;;;;;;7.20;1.10;;;21.60;43.00;;;;;;5051374;28;20025;-52
2022/09/18 04:37:33;;;;;;;4.32;1.20;;;21.60;43.10;;;;;;5052342;28;20072;-52
2022/09/18 04:40:03;;;;;;;2.67;0.88;;;21.60;43.10;;;;;;5062963;28;20044;-52
2022/09/18 04:42:32;;;;;;;5.00;1.17;;;21.60;43.20;;;;;;5057308;28;20522;-53
2022/09/18 04:45:02;;;;;;;2.78;1.00;;;21.60;43.60;;;;;;5051308;28;20095;-53
2022/09/18 04:47:30;;;;;;;2.80;1.00;;;21.60;43.80;;;;;;5051908;28;20021;-52
2022/09/18 04:49:59;;;;;;;3.92;1.10;;;21.50;43.90;;;;;;5051648;28;20032;-53
2022/09/18 04:52:30;;;;;;;3.80;1.00;;;21.50;44.60;;;;;;5052104;28;20032;-52
2022/09/18 04:54:58;;;;;;;2.67;0.90;;;21.50;44.10;;;;;;5085043;28;20033;-52
2022/09/18 04:57:27;;;;;;;3.45;1.02;;;21.50;43.90;;;;;;5085343;28;20033;-53
2022/09/18 04:59:56;;;;;;;3.25;1.10;;;21.50;43.90;;;;;;5051156;28;20029;-52
2022/09/18 05:02:24;;;;;;;4.45;1.00;;;21.50;43.80;;;;;;5075546;28;20031;-52
2022/09/18 05:04:53;;;;;;;4.50;1.10;;;21.60;43.10;;;;;;5051199;28;20562;-52
2022/09/18 05:07:31;;;;;;;4.05;1.08;;;21.50;42.80;;;;;;5051688;28;20040;-53
2022/09/18 05:10:01;;;;;;;3.08;0.93;;;21.50;42.80;;;;;;5050890;28;20557;-53
2022/09/18 05:12:31;;;;;;;3.28;1.05;;;21.60;42.50;;;;;;5064836;28;20040;-53
2022/09/18 05:15:00;;;;;;;2.58;0.90;;;21.60;42.60;;;;;;5070861;28;20037;-52
2022/09/18 05:17:28;;;;;;;2.67;0.90;;;21.60;42.20;;;;;;5071534;28;20032;-52
2022/09/18 05:20:03;;;;;;;2.40;0.95;;;21.60;41.90;;;;;;5055413;28;20162;-53
2022/09/18 05:22:38;;;;;;;2.95;1.00;;;21.70;41.60;;;;;;5057562;28;20120;-52
2022/09/18 05:25:11;;;;;;;3.92;1.17;;;21.70;41.60;;;;;;5069585;28;20442;-52
2022/09/18 05:27:39;;;;;;;3.15;0.90;;;21.70;41.80;;;;;;5051847;28;20031;-53
2022/09/18 05:30:09;;;;;;;3.22;1.10;;;21.70;42.10;;;;;;5051202;28;20127;-52
2022/09/18 05:33:06;;;;;;;4.43;1.52;;;21.70;42.60;;;;;;5051640;28;20378;-52
2022/09/18 05:35:39;;;;;;;4.85;1.17;;;21.70;43.00;;;;;;5051876;28;20090;-53
2022/09/18 05:38:09;;;;;;;3.20;1.15;;;21.70;43.00;;;;;;5051752;28;20025;-52
2022/09/18 05:40:41;;;;;;;3.05;0.98;;;21.60;43.00;;;;;;5051361;28;20053;-52
2022/09/18 05:43:10;;;;;;;3.20;1.00;;;21.70;43.20;;;;;;5055616;28;20036;-52
2022/09/18 05:45:39;;;;;;;3.22;1.08;;;21.70;43.10;;;;;;5050580;28;20083;-53
2022/09/18 05:48:16;;;;;;;4.78;1.10;;;21.70;42.40;;;;;;5050818;28;20108;-53
2022/09/18 05:50:47;;;;;;;4.72;1.08;;;21.70;42.60;;;;;;5050923;28;20491;-53
2022/09/18 05:53:19;;;;;;;5.03;1.27;;;21.70;42.40;;;;;;5069302;28;20041;-53
2022/09/18 05:55:58;;;;;;;4.18;1.00;;;21.70;42.50;;;;;;5070844;28;20029;-53
2022/09/18 05:58:26;;;;;;;3.60;1.10;;;21.70;42.40;;;;;;5070239;28;20060;-53
2022/09/18 06:01:00;;;;;;;2.63;0.80;;;21.70;42.10;;;;;;5070763;28;20119;-53
2022/09/18 06:03:43;;;;;;;4.05;1.10;;;21.70;41.90;;;;;;5052269;28;20131;-53
2022/09/18 06:06:13;;;;;;;3.70;1.10;;;21.70;41.70;;;;;;5058950;28;20029;-55
2022/09/18 06:08:41;;;;;;;4.30;1.30;;;21.70;42.10;;;;;;5044698;28;20398;-56
2022/09/18 06:11:09;;;;;;;5.07;1.30;;;21.70;42.60;;;;;;5069972;28;20466;-56
2022/09/18 06:13:37;;;;;;;3.50;1.20;;;21.70;42.70;;;;;;5050182;28;20056;-53
2022/09/18 06:16:06;;;;;;;2.95;1.00;;;21.70;43.10;;;;;;5056162;28;20092;-53
2022/09/18 06:18:46;;;;;;;4.70;1.30;;;21.60;43.00;;;;;;5057449;28;20032;-53
2022/09/18 06:21:15;;;;;;;2.85;1.10;;;21.60;42.80;;;;;;5050521;28;20112;-53
2022/09/18 06:23:44;;;;;;;3.28;0.90;;;21.60;42.70;;;;;;5062330;28;20155;-54
2022/09/18 06:26:25;;;;;;;3.30;1.25;;;21.60;42.50;;;;;;5051692;28;20120;-53
2022/09/18 06:28:53;;;;;;;6.85;1.25;;;21.60;42.90;;;;;;5063751;28;20037;-53
2022/09/18 06:31:21;;;;;;;3.17;1.00;;;21.60;42.80;;;;;;5065773;28;20020;-54
2022/09/18 06:34:01;;;;;;;3.65;0.90;;;21.60;42.80;;;;;;5055917;28;20048;-54
2022/09/18 06:36:29;;;;;;;4.35;1.20;;;21.60;42.70;;;;;;5052984;28;20120;-54
2022/09/18 06:39:05;;;;;;;4.68;1.50;;;21.60;42.50;;;;;;5064626;28;20044;-54
2022/09/18 06:41:33;;;;;;;2.97;1.00;;;21.50;42.50;;;;;;5058103;28;20075;-54
2022/09/18 06:44:05;;;;;;;4.70;1.10;;;21.50;42.10;;;;;;5069954;28;20543;-53
2022/09/18 06:46:40;;;;;;;4.03;1.00;;;21.50;42.50;;;;;;5076051;28;20028;-53
2022/09/18 06:49:26;;;;;;;2.88;0.93;;;21.50;43.00;;;;;;5057943;28;20124;-53
2022/09/18 06:51:55;;;;;;;4.32;1.05;;;21.50;42.70;;;;;;5071243;28;20103;-53
2022/09/18 06:54:23;;;;;;;2.95;1.02;;;21.50;42.80;;;;;;5057040;28;20029;-53
2022/09/18 06:56:52;;;;;;;3.42;1.23;;;21.50;43.30;;;;;;5058890;28;20086;-53
2022/09/18 06:59:21;;;;;;;4.30;1.00;;;21.50;43.30;;;;;;5070494;28;20369;-52
2022/09/18 07:01:52;;;;;;;4.63;1.23;;;21.40;43.50;;;;;;5068659;28;20031;-52
2022/09/18 07:04:29;;;;;;;2.85;0.90;;;21.40;43.90;;;;;;5063813;28;20140;-52
2022/09/18 07:07:00;;;;;;;5.50;1.13;;;21.30;44.10;;;;;;5049358;28;20384;-51
2022/09/18 07:09:29;;;;;;;5.47;1.30;;;21.30;44.60;;;;;;5048903;28;20059;-52
2022/09/18 07:12:03;;;;;;;4.72;1.40;;;21.30;44.70;;;;;;5049147;28;20040;-52
2022/09/18 07:14:43;;;;;;;3.60;1.17;;;21.30;44.70;;;;;;5052948;28;20033;-53
2022/09/18 07:17:13;;;;;;;3.92;1.20;;;21.40;44.40;;;;;;5070501;28;20058;-53
2022/09/18 07:19:42;;;;;;;4.75;1.15;;;21.40;44.20;;;;;;5080706;28;20501;-55
2022/09/18 07:22:10;;;;;;;4.70;1.48;;;21.40;44.60;;;;;;5062625;28;20390;-54
2022/09/18 07:24:43;;;;;;;4.30;1.30;;;21.40;43.60;;;;;;5075546;28;20525;-56
2022/09/18 07:27:12;;;;;;;5.00;1.65;;;21.40;43.30;;;;;;5075922;28;20452;-55
2022/09/18 07:29:42;;;;;;;3.15;1.08;;;21.30;43.10;;;;;;5062342;28;20122;-54
2022/09/18 07:32:14;;;;;;;3.50;1.05;;;21.30;43.40;;;;;;5077111;28;20032;-53
2022/09/18 07:34:45;;;;;;;4.40;1.10;;;21.30;43.70;;;;;;5073138;28;20029;-53
2022/09/18 07:37:19;;;;;;;4.57;1.27;;;21.30;44.10;;;;;;5056215;28;20271;-54
2022/09/18 07:39:57;;;;;;;3.45;1.13;;;21.30;44.10;;;;;;5051056;28;20078;-52
2022/09/18 07:42:43;;;;;;;4.13;1.20;;;21.30;44.00;;;;;;5056903;28;20102;-55
2022/09/18 07:45:12;;;;;;;6.57;1.40;;;21.30;44.10;;;;;;5066744;28;20044;-57
2022/09/18 07:47:43;;;;;;;5.35;1.25;;;21.30;45.10;;;;;;5049973;28;20454;-56
2022/09/18 07:50:14;;;;;;;3.38;1.13;;;21.20;44.90;;;;;;5048565;28;20128;-54
2022/09/18 07:52:54;;;;;;;5.20;1.67;;;21.20;45.10;;;;;;5049630;28;20071;-52
2022/09/18 07:55:27;;;;;;;6.03;1.60;;;21.20;45.30;;;;;;5049149;28;20036;-51
2022/09/18 07:58:03;;;;;;;5.43;1.52;;;21.20;45.60;;;;;;5049171;28;20113;-52
2022/09/18 08:00:51;;;;;;;7.18;1.70;;;21.10;46.20;;;;;;5048373;28;20613;-51
2022/09/18 08:03:21;;;;;;;4.80;1.60;;;21.10;47.00;;;;;;5065399;28;20127;-51
2022/09/18 08:06:24;;;;;;;8.55;1.70;;;21.10;46.70;;;;;;5036361;28;20025;-52
2022/09/18 08:09:03;;;;;;;5.80;1.52;;;21.00;47.20;;;;;;5054731;28;20029;-51
2022/09/18 08:11:53;;;;;;;7.22;1.50;;;21.00;48.70;;;;;;5058122;28;20093;-51
2022/09/18 08:14:57;;;;;;;5.35;1.80;;;21.00;48.20;;;;;;5039995;28;20037;-51
2022/09/18 08:17:45;;;;;;;11.30;1.90;;;20.90;48.60;;;;;;5062167;28;20044;-52
2022/09/18 08:20:32;;;;;;;7.13;2.42;;;20.90;48.90;;;;;;5063561;28;20106;-51
2022/09/18 08:23:25;;;;;;;6.97;2.55;;;20.90;49.70;;;;;;5065537;28;20159;-52
2022/09/18 08:25:53;;;;;;;7.82;1.67;;;20.80;49.20;;;;;;5042723;28;20576;-55
2022/09/18 08:28:23;;;;;;;5.30;1.55;;;20.80;49.70;;;;;;5059511;28;20107;-53
2022/09/18 08:30:59;;;;;;;7.32;1.77;;;20.80;50.10;;;;;;5078549;28;20036;-53
2022/09/18 08:33:28;;;;;;;6.10;1.88;;;20.80;49.50;;;;;;5064256;28;20031;-53
2022/09/18 08:35:56;;;;;;;6.00;1.70;;;20.80;50.00;;;;;;5067094;28;20035;-52
2022/09/18 08:38:32;;;;;;;7.53;1.95;;;20.80;49.70;;;;;;5056474;28;20120;-52
2022/09/18 08:41:24;;;;;;;4.55;1.70;;;20.80;50.00;;;;;;5067883;28;20147;-53
2022/09/18 08:44:31;;;;;;;5.70;1.65;;;20.70;49.00;;;;;;5062068;28;20033;-53
2022/09/18 08:47:15;;;;;;;7.50;1.45;;;20.70;49.30;;;;;;5035236;28;20055;-52
2022/09/18 08:50:08;;;;;;;9.25;1.98;;;20.70;49.40;;;;;;5047316;28;20053;-58
2022/09/18 08:52:42;;;;;;;4.88;1.90;;;20.70;50.50;;;;;;5047779;28;20033;-53
2022/09/18 08:55:32;;;;;;;5.15;1.77;;;20.70;50.00;;;;;;5054384;28;20052;-52
2022/09/18 08:58:33;;;;;;;5.35;1.88;;;20.70;49.60;;;;;;5049641;28;20033;-53
2022/09/18 09:01:15;;;;;;;5.55;1.63;;;20.70;49.60;;;;;;5047655;28;20024;-54
2022/09/18 09:04:38;;;;;;;5.95;1.65;;;20.70;48.80;;;;;;5047205;28;20090;-51
2022/09/18 09:07:31;;;;;;;5.05;1.77;;;20.70;48.40;;;;;;5036979;28;20079;-52
2022/09/18 09:10:08;;;;;;;4.78;1.80;;;20.70;49.00;;;;;;5047233;28;20033;-52
2022/09/18 09:12:51;;;;;;;9.07;2.10;;;20.60;48.70;;;;;;5048423;28;20056;-51
2022/09/18 09:15:33;;;;;;;4.32;1.50;;;20.60;49.60;;;;;;5047119;28;20035;-55
2022/09/18 09:18:17;;;;;;;4.93;1.70;;;20.60;49.30;;;;;;5047493;28;20029;-55
2022/09/18 09:20:52;;;;;;;3.63;1.55;;;20.60;48.80;;;;;;5067500;28;20082;-53
2022/09/18 09:24:02;;;;;;;4.75;1.30;;;20.60;48.90;;;;;;5062659;28;20028;-66
2022/09/18 09:26:51;;;;;;;4.07;1.30;;;20.60;48.20;;;;;;5063449;28;20117;-58
2022/09/18 09:29:55;;;;;;;4.30;1.25;;;20.60;48.50;;;;;;4997879;28;20102;-60
2022/09/18 09:32:46;;;;;;;4.93;1.52;;;20.60;48.50;;;;;;5055568;28;20526;-60
2022/09/18 09:35:58;;;;;;;5.30;1.50;;;20.60;49.20;;;;;;5056621;28;20040;-60
2022/09/18 09:39:00;;;;;;;4.22;1.50;;;20.70;49.20;;;;;;5050727;28;20033;-60
2022/09/18 09:41:37;;;;;;;3.28;1.20;;;20.60;48.90;;;;;;5067578;28;20036;-60
2022/09/18 09:44:19;;;;;;;4.32;1.20;;;20.60;49.00;;;;;;5050581;28;20448;-60
2022/09/18 09:47:09;;;;;;;3.80;1.30;;;20.60;49.40;;;;;;5050832;28;20032;-60
2022/09/18 09:50:06;;;;;;;5.32;1.50;;;20.60;49.60;;;;;;5034225;28;20590;-60
2022/09/18 09:52:39;;;;;;;4.50;1.55;;;20.60;49.80;;;;;;5059926;28;20028;-60
2022/09/18 09:55:18;;;;;;;4.63;1.80;;;20.60;50.00;;;;;;5069894;28;20029;-60
2022/09/18 09:58:11;;;;;;;6.13;1.40;;;20.60;50.30;;;;;;5066386;28;20024;-60
2022/09/18 10:00:52;;;;;;;4.57;1.63;;;20.50;50.10;;;;;;5050719;28;20116;-61
2022/09/18 10:03:47;;;;;;;4.68;1.40;;;20.50;50.10;;;;;;5055898;28;20028;-60
2022/09/18 10:06:51;;;;;;;4.10;1.38;;;20.50;50.30;;;;;;5068513;28;20073;-59
2022/09/18 10:09:41;;;;;;;4.32;1.48;;;20.50;50.40;;;;;;5068385;28;20336;-59
2022/09/18 10:12:30;;;;;;;4.82;1.65;;;20.50;50.70;;;;;;5071407;28;20036;-59
2022/09/18 10:15:35;;;;;;;4.75;1.50;;;20.50;50.50;;;;;;5065889;28;20024;-63
2022/09/18 10:18:19;;;;;;;4.75;1.50;;;20.50;50.80;;;;;;5070793;28;20475;-60
2022/09/18 10:20:50;;;;;;;4.65;1.60;;;20.50;51.20;;;;;;5055022;28;20029;-59
2022/09/18 10:23:40;;;;;;;5.95;1.75;;;20.50;51.00;;;;;;5052566;28;20429;-59
2022/09/18 10:26:30;;;;;;;3.65;1.40;;;20.50;50.70;;;;;;5050982;28;20041;-59
2022/09/18 10:29:00;;;;;;;4.70;1.55;;;20.50;50.30;;;;;;5053842;28;20060;-60
2022/09/18 10:31:50;;;;;;;5.38;1.42;;;20.50;50.30;;;;;;5052552;28;20077;-59
2022/09/18 10:34:43;;;;;;;5.38;1.52;;;20.50;50.60;;;;;;5049191;28;20033;-59
2022/09/18 10:37:38;;;;;;;5.15;1.40;;;20.50;51.30;;;;;;5045590;28;20454;-60
2022/09/18 10:40:36;;;;;;;6.82;1.92;;;20.60;51.50;;;;;;5084992;28;20440;-58
2022/09/18 10:43:07;;;;;;;4.93;1.50;;;20.60;52.30;;;;;;5062056;28;20124;-58
2022/09/18 10:45:41;;;;;;;6.68;1.90;;;20.60;52.50;;;;;;5057485;28;20040;-59
2022/09/18 10:48:25;;;;;;;5.10;1.48;;;20.60;52.50;;;;;;5068374;28;20479;-58
2022/09/18 10:50:57;;;;;;;7.82;2.42;;;20.60;52.70;;;;;;5066484;28;20025;-57
2022/09/18 10:53:41;;;;;;;6.22;1.80;;;20.60;52.70;;;;;;5048930;28;20075;-59
2022/09/18 10:56:20;;;;;;;5.25;1.60;;;20.60;52.90;;;;;;5064043;28;20029;-58
2022/09/18 10:58:52;;;;;;;6.03;2.00;;;20.60;53.60;;;;;;5058044;28;20032;-59
2022/09/18 11:01:24;;;;;;;5.28;1.65;;;20.70;54.50;;;;;;5067965;28;20033;-58
2022/09/18 11:04:06;;;;;;;7.72;1.70;;;20.70;54.60;;;;;;5065066;28;20033;-60
2022/09/18 11:06:37;;;;;;;7.22;1.60;;;20.70;55.10;;;;;;5069720;28;20170;-58
2022/09/18 11:09:32;;;;;;;5.18;1.60;;;20.70;54.70;;;;;;5069039;28;20024;-72
2022/09/18 11:12:02;;;;;;;4.05;1.38;;;20.70;55.30;;;;;;5044619;28;20661;-70
2022/09/18 11:14:41;;;;;;;5.53;1.58;;;20.70;55.80;;;;;;5075259;28;20048;-70
2022/09/18 11:17:41;;;;;;;5.35;1.60;;;20.70;55.50;;;;;;5076571;28;20102;-58
2022/09/18 11:20:26;;;;;;;6.47;1.83;;;20.70;55.50;;;;;;5070383;28;20126;-61
2022/09/18 11:23:30;;;;;;;4.82;1.85;;;20.70;56.10;;;;;;5089699;28;20038;-65
2022/09/18 11:26:19;;;;;;;10.82;1.75;;;20.70;55.40;;;;;;5089504;28;20533;-62
2022/09/18 11:29:02;;;;;;;3.90;1.33;;;20.70;54.90;;;;;;5074906;28;20024;-62
2022/09/18 11:32:02;;;;;;;6.45;1.63;;;20.70;54.80;;;;;;5048919;28;20093;-62
2022/09/18 11:34:35;;;;;;;6.85;1.80;;;20.70;54.60;;;;;;5063699;28;20487;-61
2022/09/18 11:37:25;;;;;;;8.30;1.83;;;20.70;54.60;;;;;;5067793;28;20033;-62
2022/09/18 11:39:59;;;;;;;5.43;1.52;;;20.70;54.90;;;;;;5062046;28;20089;-61
2022/09/18 11:42:32;;;;;;;4.10;1.30;;;20.70;54.60;;;;;;5054974;28;20036;-57
2022/09/18 11:45:43;;;;;;;8.75;1.83;;;20.70;54.70;;;;;;5066456;28;20044;-58
2022/09/18 11:48:48;;;;;;;6.50;1.73;;;20.70;54.50;;;;;;5056430;28;20467;-58
2022/09/18 11:51:25;;;;;;;4.78;1.50;;;20.70;54.90;;;;;;5032432;28;20028;-62
2022/09/18 11:54:07;;;;;;;6.50;1.48;;;20.70;55.00;;;;;;5061943;28;20032;-60
2022/09/18 11:56:46;;;;;;;4.72;1.52;;;20.70;55.00;;;;;;5065438;28;20035;-62
2022/09/18 11:59:28;;;;;;;4.72;1.42;;;20.70;55.20;;;;;;5068339;28;20021;-61
2022/09/18 12:02:18;;;;;;;3.88;1.50;;;20.70;55.30;;;;;;5055060;28;20029;-61
2022/09/18 12:05:02;;;;;;;6.30;1.80;;;20.70;54.40;;;;;;5052095;28;20037;-59
2022/09/18 12:07:58;;;;;;;5.75;1.45;;;20.70;53.60;;;;;;5032600;28;20486;-60
2022/09/18 12:10:37;;;;;;;6.57;1.50;;;20.70;53.60;;;;;;5059189;28;20039;-59
2022/09/18 12:13:21;;;;;;;5.40;1.33;;;20.70;53.30;;;;;;5061124;28;20024;-58
2022/09/18 12:16:12;;;;;;;5.22;1.38;;;20.70;53.20;;;;;;5069410;28;20037;-59
2022/09/18 12:19:12;;;;;;;5.30;1.30;;;20.70;53.40;;;;;;5088742;28;20024;-59
2022/09/18 12:21:49;;;;;;;6.75;1.60;;;20.70;53.40;;;;;;5061869;28;20131;-58
2022/09/18 12:24:18;;;;;;;5.72;1.70;;;20.70;53.40;;;;;;5077117;28;20037;-62
2022/09/18 12:27:09;;;;;;;4.32;1.40;;;20.70;53.30;;;;;;5060189;28;20047;-62
2022/09/18 12:29:58;;;;;;;5.50;1.48;;;20.70;54.50;;;;;;5061534;28;20016;-60
2022/09/18 12:32:29;;;;;;;5.65;1.55;;;20.70;54.80;;;;;;5063592;28;20032;-61
2022/09/18 12:35:18;;;;;;;4.15;1.50;;;20.70;54.10;;;;;;5060421;28;20523;-60
2022/09/18 12:37:57;;;;;;;3.55;1.33;;;20.70;53.70;;;;;;5060708;28;20064;-60
2022/09/18 12:40:55;;;;;;;9.70;1.50;;;20.70;53.30;;;;;;5047483;28;20106;-59
2022/09/18 12:43:37;;;;;;;3.83;1.33;;;20.70;53.40;;;;;;5057973;28;20052;-59
2022/09/18 12:46:24;;;;;;;4.53;1.38;;;20.70;53.40;;;;;;5062193;28;20040;-60
2022/09/18 12:49:06;;;;;;;3.80;1.30;;;20.70;53.50;;;;;;5056995;28;20021;-60
2022/09/18 12:51:58;;;;;;;4.88;1.33;;;20.70;53.40;;;;;;5048071;28;20036;-60
2022/09/18 12:54:39;;;;;;;5.72;1.73;;;20.70;53.50;;;;;;5072649;28;20028;-60
2022/09/18 12:57:20;;;;;;;6.40;1.40;;;20.70;53.60;;;;;;5070520;28;20028;-60
2022/09/18 13:00:11;;;;;;;7.15;1.70;;;20.70;53.60;;;;;;5072799;28;20028;-60
2022/09/18 13:02:56;;;;;;;4.95;1.60;;;20.70;53.60;;;;;;5073672;28;20457;-60
2022/09/18 13:05:30;;;;;;;7.47;1.33;;;20.70;53.70;;;;;;5051816;28;20066;-60
2022/09/18 13:08:26;;;;;;;5.75;1.60;;;20.70;53.60;;;;;;5051923;28;20115;-59
2022/09/18 13:11:36;;;;;;;6.20;1.67;;;20.70;53.70;;;;;;5053269;28;20108;-60
2022/09/18 13:14:33;;;;;;;5.10;1.48;;;20.60;53.70;;;;;;5056434;28;20079;-59
2022/09/18 13:17:16;;;;;;;8.10;1.65;;;20.70;53.80;;;;;;5066084;28;20109;-59
2022/09/18 13:20:21;;;;;;;5.43;1.60;;;20.60;54.30;;;;;;5072784;28;20104;-59
2022/09/18 13:22:52;;;;;;;5.70;1.40;;;20.60;53.70;;;;;;5067796;28;20041;-59
2022/09/18 13:25:25;;;;;;;6.03;1.40;;;20.60;53.70;;;;;;5052139;28;20448;-60
2022/09/18 13:27:55;;;;;;;4.95;1.60;;;20.60;53.80;;;;;;5052762;28;20024;-59
2022/09/18 13:30:27;;;;;;;4.25;1.40;;;20.60;53.80;;;;;;5052229;28;20025;-59
2022/09/18 13:32:57;;;;;;;;;;;20.60;53.80;;;;;;5054175;28;20025;-59
2022/09/18 13:35:31;;;;;;;6.10;2.00;;;20.60;53.90;;;;;;5053449;28;19962;-60
2022/09/18 13:38:08;;;;;;;7.07;1.75;;;20.60;53.90;;;;;;5053479;28;20025;-59
2022/09/18 13:40:48;;;;;;;6.90;1.98;;;20.60;54.00;;;;;;5051891;28;20095;-59
2022/09/18 13:43:28;;;;;;;5.30;1.80;;;20.60;54.00;;;;;;5051944;28;20104;-59
2022/09/18 13:45:59;;;;;;;5.00;1.75;;;20.60;54.00;;;;;;5052454;28;20040;-59
2022/09/18 13:48:40;;;;;;;5.30;1.75;;;20.60;54.00;;;;;;5052057;28;20032;-59